createdAt,value
2022-07-28T00:01:14.496Z,20.59
2022-07-28T00:03:48.972Z,20.67
2022-07-28T00:06:17.927Z,20.79
2022-07-28T00:08:46.558Z,20.95
2022-07-28T00:11:16.481Z,21.01
2022-07-28T00:13:44.944Z,20.98
2022-07-28T00:16:13.666Z,20.89
2022-07-28T00:18:42.276Z,20.81
2022-07-28T00:21:10.751Z,20.72
2022-07-28T00:23:39.899Z,20.72
2022-07-28T00:26:09.774Z,20.67
2022-07-28T00:28:39.891Z,20.68
2022-07-28T00:31:08.808Z,20.71
2022-07-28T00:33:40.084Z,20.75
2022-07-28T00:36:11.636Z,20.79
2022-07-28T00:38:44.247Z,20.83
2022-07-28T00:41:13.794Z,20.86
2022-07-28T00:43:45.773Z,20.87
2022-07-28T00:46:17.352Z,20.88
2022-07-28T00:48:47.645Z,20.88
2022-07-28T00:51:17.530Z,20.82
2022-07-28T00:53:46.528Z,20.75
2022-07-28T00:56:15.867Z,20.80
2022-07-28T00:58:47.247Z,20.84
2022-07-28T01:01:19.721Z,20.83
2022-07-28T01:03:51.555Z,20.84
2022-07-28T01:06:50.741Z,20.78
2022-07-28T01:09:39.684Z,20.67
2022-07-28T01:12:28.291Z,20.61
2022-07-28T01:15:09.695Z,20.45
2022-07-28T01:17:45.985Z,20.28
2022-07-28T01:20:19.735Z,19.96
2022-07-28T01:23:20.495Z,19.89
2022-07-28T01:26:02.817Z,19.91
2022-07-28T01:28:45.624Z,19.81
2022-07-28T01:31:23.661Z,19.79
2022-07-28T01:33:57.944Z,19.67
2022-07-28T01:36:30.521Z,19.59
2022-07-28T01:39:01.427Z,19.74
2022-07-28T01:41:32.186Z,19.91
2022-07-28T01:44:03.067Z,19.98
2022-07-28T01:46:34.508Z,19.95
2022-07-28T01:49:03.926Z,19.92
2022-07-28T01:51:35.243Z,19.95
2022-07-28T01:54:04.773Z,19.93
2022-07-28T01:56:34.626Z,19.92
2022-07-28T01:59:07.188Z,19.79
2022-07-28T02:01:39.233Z,19.73
2022-07-28T02:04:09.718Z,19.75
2022-07-28T02:06:40.660Z,19.77
2022-07-28T02:09:10.253Z,19.81
2022-07-28T02:11:42.318Z,19.78
2022-07-28T02:14:15.022Z,19.73
2022-07-28T02:16:48.364Z,19.74
2022-07-28T02:19:19.420Z,19.79
2022-07-28T02:21:49.196Z,19.83
2022-07-28T02:24:22.367Z,19.83
2022-07-28T02:26:54.696Z,19.79
2022-07-28T02:29:49.836Z,19.71
2022-07-28T02:32:28.021Z,19.60
2022-07-28T02:35:09.554Z,19.47
2022-07-28T02:37:41.134Z,19.39
2022-07-28T02:40:15.676Z,19.45
2022-07-28T02:42:48.015Z,19.39
2022-07-28T02:45:17.856Z,19.23
2022-07-28T02:47:51.278Z,18.99
2022-07-28T02:50:25.540Z,18.83
2022-07-28T02:52:58.221Z,18.73
2022-07-28T02:55:27.259Z,18.64
2022-07-28T02:57:57.089Z,18.72
2022-07-28T03:00:26.354Z,18.85
2022-07-28T03:02:57.489Z,18.86
2022-07-28T03:05:26.541Z,18.87
2022-07-28T03:07:56.695Z,18.91
2022-07-28T03:10:33.951Z,18.97
2022-07-28T03:13:05.340Z,19.07
2022-07-28T03:15:34.202Z,19.17
2022-07-28T03:18:05.647Z,19.14
2022-07-28T03:20:35.309Z,19.11
2022-07-28T03:23:04.343Z,19.09
2022-07-28T03:25:40.317Z,19.05
2022-07-28T03:28:14.022Z,19.03
2022-07-28T03:30:46.129Z,19.06
2022-07-28T03:33:16.620Z,19.06
2022-07-28T03:35:48.732Z,19.05
2022-07-28T03:38:22.649Z,19.07
2022-07-28T03:40:54.019Z,19.08
2022-07-28T03:43:26.040Z,19.13
2022-07-28T03:45:54.565Z,19.19
2022-07-28T03:48:30.068Z,19.14
2022-07-28T03:50:58.882Z,19.11
2022-07-28T03:53:29.562Z,18.93
2022-07-28T03:55:58.107Z,18.73
2022-07-28T03:58:28.635Z,18.50
2022-07-28T04:00:57.891Z,18.44
2022-07-28T04:03:36.507Z,18.44
2022-07-28T04:06:12.105Z,18.47
2022-07-28T04:08:40.984Z,18.58
2022-07-28T04:11:09.630Z,18.62
2022-07-28T04:13:38.133Z,18.53
2022-07-28T04:16:07.951Z,18.59
2022-07-28T04:18:38.080Z,18.65
2022-07-28T04:21:08.285Z,18.69
2022-07-28T04:23:36.796Z,18.72
2022-07-28T04:26:05.578Z,18.81
2022-07-28T04:28:37.015Z,18.87
2022-07-28T04:31:05.563Z,18.95
2022-07-28T04:33:34.127Z,18.93
2022-07-28T04:36:04.476Z,18.89
2022-07-28T04:38:32.923Z,18.94
2022-07-28T04:41:01.978Z,18.97
2022-07-28T04:43:30.632Z,18.99
2022-07-28T04:45:59.496Z,19.03
2022-07-28T04:48:27.995Z,19.10
2022-07-28T04:50:57.244Z,19.07
2022-07-28T04:53:28.451Z,19.08
2022-07-28T04:55:57.418Z,19.15
2022-07-28T04:58:27.543Z,19.14
2022-07-28T05:00:59.426Z,19.18
2022-07-28T05:03:31.521Z,19.21
2022-07-28T05:06:02.657Z,19.22
2022-07-28T05:08:32.480Z,19.29
2022-07-28T05:11:00.944Z,19.31
2022-07-28T05:13:33.961Z,19.27
2022-07-28T05:16:03.118Z,19.17
2022-07-28T05:18:31.708Z,19.14
2022-07-28T05:21:00.244Z,19.17
2022-07-28T05:23:28.847Z,19.22
2022-07-28T05:25:58.647Z,19.22
2022-07-28T05:28:27.401Z,19.26
2022-07-28T05:30:56.265Z,19.34
2022-07-28T05:33:24.895Z,19.36
2022-07-28T05:36:00.424Z,19.48
2022-07-28T05:38:30.371Z,19.54
2022-07-28T05:41:00.515Z,19.57
2022-07-28T05:43:29.035Z,19.64
2022-07-28T05:45:57.745Z,19.71
2022-07-28T05:48:26.337Z,19.77
2022-07-28T05:50:55.104Z,19.80
2022-07-28T05:53:23.649Z,19.80
2022-07-28T05:55:59.976Z,19.85
2022-07-28T05:58:32.117Z,19.92
2022-07-28T06:01:01.469Z,19.98
2022-07-28T06:03:32.132Z,19.98
2022-07-28T06:06:15.723Z,19.97
2022-07-28T06:08:46.906Z,19.90
2022-07-28T06:11:22.262Z,19.86
2022-07-28T06:13:53.445Z,19.84
2022-07-28T06:16:23.307Z,19.86
2022-07-28T06:18:52.733Z,19.89
2022-07-28T06:21:24.244Z,19.84
2022-07-28T06:23:52.839Z,19.91
2022-07-28T06:26:23.577Z,19.99
2022-07-28T06:28:54.005Z,20.07
2022-07-28T06:31:22.552Z,20.19
2022-07-28T06:33:51.055Z,20.32
2022-07-28T06:36:19.749Z,20.39
2022-07-28T06:38:48.319Z,20.50
2022-07-28T06:41:17.442Z,20.57
2022-07-28T06:43:45.946Z,20.63
2022-07-28T06:46:19.672Z,20.69
2022-07-28T06:48:48.408Z,20.78
2022-07-28T06:51:19.728Z,20.84
2022-07-28T06:53:49.487Z,20.90
2022-07-28T06:56:19.664Z,20.91
2022-07-28T06:58:50.427Z,20.95
2022-07-28T07:01:20.402Z,21.03
2022-07-28T07:03:49.011Z,21.06
2022-07-28T07:06:17.485Z,21.11
2022-07-28T07:08:47.286Z,21.20
2022-07-28T07:11:15.859Z,21.26
2022-07-28T07:13:44.354Z,21.30
2022-07-28T07:16:12.966Z,21.34
2022-07-28T07:18:43.055Z,21.41
2022-07-28T07:21:11.621Z,21.53
2022-07-28T07:23:40.266Z,21.66
2022-07-28T07:26:08.732Z,21.79
2022-07-28T07:28:37.301Z,21.87
2022-07-28T07:31:06.572Z,21.97
2022-07-28T07:33:35.129Z,22.04
2022-07-28T07:36:05.498Z,22.09
2022-07-28T07:38:34.101Z,22.12
2022-07-28T07:41:03.462Z,22.18
2022-07-28T07:43:32.261Z,22.23
2022-07-28T07:46:01.290Z,22.27
2022-07-28T07:48:29.783Z,22.28
2022-07-28T07:50:58.267Z,22.32
2022-07-28T07:53:28.133Z,22.40
2022-07-28T07:55:56.730Z,22.47
2022-07-28T07:58:25.308Z,22.53
2022-07-28T08:00:54.377Z,22.61
2022-07-28T08:03:22.913Z,22.67
2022-07-28T08:05:56.759Z,22.74
2022-07-28T08:08:27.350Z,22.81
2022-07-28T08:10:55.902Z,22.87
2022-07-28T08:13:24.395Z,22.95
2022-07-28T08:15:52.935Z,23.03
2022-07-28T08:18:21.703Z,23.09
2022-07-28T08:20:50.235Z,23.14
2022-07-28T08:23:22.902Z,23.23
2022-07-28T08:25:55.844Z,23.29
2022-07-28T08:28:24.361Z,23.33
2022-07-28T08:30:53.386Z,23.39
2022-07-28T08:33:22.126Z,23.45
2022-07-28T08:35:51.089Z,23.52
2022-07-28T08:38:20.125Z,23.56
2022-07-28T08:40:51.436Z,23.58
2022-07-28T08:43:33.501Z,23.65
2022-07-28T08:46:04.303Z,23.70
2022-07-28T08:48:35.046Z,23.76
2022-07-28T08:51:05.478Z,23.84
2022-07-28T08:53:36.466Z,23.91
2022-07-28T08:56:07.389Z,24.01
2022-07-28T08:58:39.303Z,24.11
2022-07-28T09:01:10.905Z,24.20
2022-07-28T09:03:40.047Z,24.28
2022-07-28T09:06:09.148Z,24.38
2022-07-28T09:08:38.158Z,24.46
2022-07-28T09:11:08.289Z,24.53
2022-07-28T09:13:38.481Z,24.60
2022-07-28T09:16:07.576Z,24.66
2022-07-28T09:18:36.480Z,24.68
2022-07-28T09:21:05.023Z,24.74
2022-07-28T09:23:44.808Z,24.83
2022-07-28T09:26:14.036Z,24.89
2022-07-28T09:28:51.524Z,24.92
2022-07-28T09:31:20.974Z,24.87
2022-07-28T09:33:57.870Z,24.84
2022-07-28T09:36:26.379Z,24.90
2022-07-28T09:38:56.689Z,24.97
2022-07-28T09:41:25.368Z,25.11
2022-07-28T09:43:55.977Z,25.20
2022-07-28T09:46:29.190Z,25.26
2022-07-28T09:48:59.924Z,25.34
2022-07-28T09:51:30.717Z,25.41
2022-07-28T09:54:10.836Z,25.50
2022-07-28T09:56:40.029Z,25.58
2022-07-28T09:59:10.695Z,25.66
2022-07-28T10:01:56.012Z,25.77
2022-07-28T10:04:37.610Z,25.86
2022-07-28T10:07:09.860Z,25.96
2022-07-28T10:09:39.611Z,26.03
2022-07-28T10:12:19.270Z,26.10
2022-07-28T10:14:50.507Z,26.13
2022-07-28T10:17:39.776Z,26.13
2022-07-28T10:20:09.963Z,26.16
2022-07-28T10:22:43.222Z,26.20
2022-07-28T10:25:13.188Z,26.29
2022-07-28T10:27:43.711Z,26.34
2022-07-28T10:30:15.262Z,26.37
2022-07-28T10:32:45.823Z,26.47
2022-07-28T10:35:15.918Z,26.49
2022-07-28T10:37:52.654Z,26.55
2022-07-28T10:40:26.142Z,26.63
2022-07-28T10:42:56.399Z,26.70
2022-07-28T10:45:48.078Z,26.75
2022-07-28T10:48:16.820Z,26.82
2022-07-28T10:50:45.891Z,26.91
2022-07-28T10:53:29.013Z,27.01
2022-07-28T10:56:03.650Z,27.05
2022-07-28T10:58:42.056Z,27.11
2022-07-28T11:01:26.669Z,27.14
2022-07-28T11:04:00.597Z,27.22
2022-07-28T11:06:31.199Z,27.27
2022-07-28T11:09:02.116Z,27.30
2022-07-28T11:11:47.203Z,27.38
2022-07-28T11:14:37.385Z,27.44
2022-07-28T11:17:24.328Z,27.50
2022-07-28T11:22:45.503Z,27.59
2022-07-28T11:25:21.813Z,27.61
2022-07-28T11:28:02.134Z,27.63
2022-07-28T11:30:58.064Z,27.64
2022-07-28T11:33:57.440Z,27.75
2022-07-28T11:36:46.043Z,27.81
2022-07-28T11:39:24.006Z,27.88
2022-07-28T11:41:53.623Z,27.95
2022-07-28T11:44:26.395Z,28.03
2022-07-28T11:46:55.513Z,28.11
2022-07-28T11:49:28.754Z,28.14
2022-07-28T11:52:11.687Z,28.19
2022-07-28T11:54:41.271Z,28.23
2022-07-28T11:57:12.065Z,28.31
2022-07-28T11:59:44.753Z,28.37
2022-07-28T12:02:20.201Z,28.39
2022-07-28T12:04:58.893Z,28.41
2022-07-28T12:07:34.223Z,28.45
2022-07-28T12:10:03.938Z,28.54
2022-07-28T12:12:33.473Z,28.56
2022-07-28T12:15:06.677Z,28.59
2022-07-28T12:17:36.036Z,28.67
2022-07-28T12:20:11.543Z,28.84
2022-07-28T12:22:42.775Z,28.96
2022-07-28T12:25:13.476Z,29.02
2022-07-28T12:27:44.806Z,29.12
2022-07-28T12:30:23.191Z,29.20
2022-07-28T12:32:52.255Z,29.33
2022-07-28T12:35:24.675Z,29.40
2022-07-28T12:37:53.407Z,29.44
2022-07-28T12:40:27.259Z,29.46
2022-07-28T12:42:56.261Z,29.47
2022-07-28T12:45:26.415Z,29.53
2022-07-28T12:47:55.146Z,29.63
2022-07-28T12:50:25.017Z,29.71
2022-07-28T12:53:04.781Z,29.74
2022-07-28T12:55:33.353Z,29.76
2022-07-28T12:58:02.038Z,29.77
2022-07-28T13:00:33.466Z,29.78
2022-07-28T13:03:20.769Z,29.83
2022-07-28T13:06:05.959Z,29.90
2022-07-28T13:08:44.014Z,29.91
2022-07-28T13:11:43.259Z,29.93
2022-07-28T13:14:04.436Z,29.92
2022-07-28T13:16:34.416Z,29.97
2022-07-28T13:19:04.475Z,30.01
2022-07-28T13:21:56.107Z,30.05
2022-07-28T13:24:26.096Z,30.07
2022-07-28T13:26:54.624Z,30.09
2022-07-28T13:29:23.813Z,30.13
2022-07-28T13:31:54.578Z,30.17
2022-07-28T13:34:23.670Z,30.19
2022-07-28T13:36:53.582Z,30.21
2022-07-28T13:39:22.531Z,30.23
2022-07-28T13:41:58.603Z,30.28
2022-07-28T13:44:28.394Z,30.38
2022-07-28T13:46:59.248Z,30.47
2022-07-28T13:49:28.545Z,30.58
2022-07-28T13:52:00.777Z,30.72
2022-07-28T13:54:29.452Z,30.81
2022-07-28T13:56:58.011Z,30.88
2022-07-28T13:59:26.637Z,31.06
2022-07-28T14:01:56.379Z,31.08
2022-07-28T14:04:25.315Z,31.01
2022-07-28T14:06:55.251Z,30.94
2022-07-28T14:09:25.312Z,30.91
2022-07-28T14:11:54.252Z,30.85
2022-07-28T14:14:24.946Z,30.86
2022-07-28T14:16:55.311Z,30.93
2022-07-28T14:19:38.133Z,30.93
2022-07-28T14:22:12.847Z,30.89
2022-07-28T14:24:44.080Z,30.95
2022-07-28T14:27:12.596Z,30.92
2022-07-28T14:29:42.541Z,30.85
2022-07-28T14:32:11.072Z,30.80
2022-07-28T14:34:39.741Z,30.74
2022-07-28T14:37:09.377Z,30.69
2022-07-28T14:39:38.496Z,30.70
2022-07-28T14:42:08.683Z,30.75
2022-07-28T14:44:37.573Z,30.82
2022-07-28T14:47:07.437Z,30.91
2022-07-28T14:49:36.119Z,30.98
2022-07-28T14:52:05.213Z,30.99
2022-07-28T14:54:35.068Z,30.99
2022-07-28T14:57:04.087Z,31.00
2022-07-28T14:59:36.037Z,30.91
2022-07-28T15:02:04.723Z,30.88
2022-07-28T15:04:33.376Z,30.88
2022-07-28T15:07:02.944Z,30.87
2022-07-28T15:09:31.485Z,30.79
2022-07-28T15:12:00.041Z,30.78
2022-07-28T15:14:29.334Z,30.74
2022-07-28T15:16:59.205Z,30.69
2022-07-28T15:19:27.715Z,30.70
2022-07-28T15:21:56.233Z,30.68
2022-07-28T15:24:27.431Z,30.57
2022-07-28T15:26:55.956Z,30.45
2022-07-28T15:29:24.764Z,30.31
2022-07-28T15:31:54.077Z,30.19
2022-07-28T15:34:24.188Z,30.11
2022-07-28T15:36:52.765Z,30.03
2022-07-28T15:39:23.144Z,29.99
2022-07-28T15:41:52.166Z,29.92
2022-07-28T15:44:22.413Z,29.83
2022-07-28T15:46:54.942Z,29.74
2022-07-28T15:49:25.288Z,29.63
2022-07-28T15:51:54.131Z,29.54
2022-07-28T15:54:26.223Z,29.44
2022-07-28T15:56:54.733Z,29.38
2022-07-28T15:59:23.267Z,29.34
2022-07-28T16:01:51.868Z,29.30
2022-07-28T16:04:20.435Z,29.26
2022-07-28T16:07:08.172Z,29.21
2022-07-28T16:09:45.650Z,29.19
2022-07-28T16:12:16.079Z,29.18
2022-07-28T16:14:44.801Z,29.17
2022-07-28T16:17:13.561Z,29.15
2022-07-28T16:19:50.825Z,29.12
2022-07-28T16:22:21.545Z,29.08
2022-07-28T16:24:50.734Z,29.06
2022-07-28T16:27:19.519Z,29.02
2022-07-28T16:29:49.469Z,28.96
2022-07-28T16:32:18.278Z,28.90
2022-07-28T16:34:48.132Z,28.86
2022-07-28T16:37:19.618Z,28.80
2022-07-28T16:39:50.251Z,28.77
2022-07-28T16:42:18.807Z,28.75
2022-07-28T16:44:47.723Z,28.71
2022-07-28T16:47:16.756Z,28.69
2022-07-28T16:49:46.400Z,28.65
2022-07-28T16:52:15.512Z,28.61
2022-07-28T16:54:44.116Z,28.57
2022-07-28T16:57:15.391Z,28.55
2022-07-28T16:59:46.464Z,28.53
2022-07-28T17:02:17.885Z,28.50
2022-07-28T17:04:46.872Z,28.47
2022-07-28T17:07:15.730Z,28.44
2022-07-28T17:09:44.865Z,28.41
2022-07-28T17:12:14.442Z,28.38
2022-07-28T17:14:44.543Z,28.34
2022-07-28T17:17:13.560Z,28.32
2022-07-28T17:19:46.965Z,28.30
2022-07-28T17:22:15.868Z,28.26
2022-07-28T17:24:44.808Z,28.23
2022-07-28T17:30:03.400Z,28.08
2022-07-28T17:32:31.904Z,28.01
2022-07-28T17:35:00.543Z,27.95
2022-07-28T17:37:29.286Z,27.79
2022-07-28T17:39:59.278Z,27.59
2022-07-28T17:42:27.946Z,27.45
2022-07-28T17:44:59.460Z,27.36
2022-07-28T17:47:35.865Z,27.35
2022-07-28T17:50:07.329Z,27.30
2022-07-28T17:52:35.980Z,27.22
2022-07-28T17:55:23.401Z,27.05
2022-07-28T17:57:53.010Z,26.81
2022-07-28T18:00:22.308Z,26.73
2022-07-28T18:02:53.022Z,26.65
2022-07-28T18:05:21.796Z,26.57
2022-07-28T18:07:53.705Z,26.57
2022-07-28T18:10:27.088Z,26.47
2022-07-28T18:12:55.775Z,26.39
2022-07-28T18:15:24.182Z,26.39
2022-07-28T18:17:56.071Z,26.32
2022-07-28T18:20:25.367Z,26.33
2022-07-28T18:22:54.031Z,26.27
2022-07-28T18:25:22.531Z,26.18
2022-07-28T18:27:51.233Z,26.15
2022-07-28T18:30:19.940Z,26.07
2022-07-28T18:32:48.896Z,25.89
2022-07-28T18:35:19.569Z,25.72
2022-07-28T18:37:48.483Z,25.63
2022-07-28T18:40:18.916Z,25.56
2022-07-28T18:42:47.381Z,25.51
2022-07-28T18:45:16.928Z,25.44
2022-07-28T18:47:47.688Z,25.35
2022-07-28T18:50:30.950Z,25.35
2022-07-28T18:53:00.884Z,25.33
2022-07-28T18:55:29.712Z,25.30
2022-07-28T18:57:58.230Z,25.32
2022-07-28T19:00:27.040Z,25.41
2022-07-28T19:02:55.696Z,25.49
2022-07-28T19:05:25.937Z,25.52
2022-07-28T19:07:54.816Z,25.39
2022-07-28T19:10:23.340Z,25.21
2022-07-28T19:12:51.973Z,25.10
2022-07-28T19:15:20.655Z,25.17
2022-07-28T19:18:10.406Z,25.27
2022-07-28T19:20:40.504Z,25.39
2022-07-28T19:23:09.235Z,25.42
2022-07-28T19:25:39.498Z,25.40
2022-07-28T19:28:08.632Z,25.34
2022-07-28T19:30:39.625Z,25.30
2022-07-28T19:33:09.511Z,25.21
2022-07-28T19:35:39.548Z,25.13
2022-07-28T19:38:09.716Z,25.11
2022-07-28T19:40:38.331Z,25.06
2022-07-28T19:43:06.900Z,24.97
2022-07-28T19:45:37.812Z,24.91
2022-07-28T19:48:08.104Z,24.80
2022-07-28T19:50:37.235Z,24.72
2022-07-28T19:53:08.028Z,24.65
2022-07-28T19:55:48.932Z,24.58
2022-07-28T19:58:21.667Z,24.43
2022-07-28T20:00:57.154Z,24.25
2022-07-28T20:04:04.092Z,24.07
2022-07-28T20:06:24.821Z,23.96
2022-07-28T20:09:05.970Z,23.91
2022-07-28T20:11:40.877Z,23.79
2022-07-28T20:14:27.646Z,23.63
2022-07-28T20:16:57.834Z,23.45
2022-07-28T20:19:48.723Z,23.36
2022-07-28T20:22:20.639Z,23.23
2022-07-28T20:25:04.834Z,23.18
2022-07-28T20:27:42.436Z,23.13
2022-07-28T20:30:24.549Z,23.12
2022-07-28T20:33:18.424Z,23.10
2022-07-28T20:36:00.647Z,23.02
2022-07-28T20:38:39.804Z,22.96
2022-07-28T20:41:31.764Z,22.88
2022-07-28T20:44:28.406Z,22.82
2022-07-28T20:47:04.503Z,22.78
2022-07-28T20:49:47.601Z,22.77
2022-07-28T20:52:23.287Z,22.73
2022-07-28T20:55:04.700Z,22.71
2022-07-28T20:58:02.372Z,22.73
2022-07-28T21:00:44.145Z,22.73
2022-07-28T21:03:21.040Z,22.75
2022-07-28T21:06:05.769Z,22.76
2022-07-28T21:08:47.938Z,22.77
2022-07-28T21:11:34.773Z,22.78
2022-07-28T21:14:08.801Z,22.76
2022-07-28T21:20:02.148Z,22.74
2022-07-28T21:22:41.172Z,22.72
2022-07-28T21:25:22.894Z,22.71
2022-07-28T21:28:11.211Z,22.70
2022-07-28T21:31:06.035Z,22.68
2022-07-28T21:33:42.709Z,22.67
2022-07-28T21:36:25.540Z,22.65
2022-07-28T21:38:59.253Z,22.64
2022-07-28T21:41:50.810Z,22.64
2022-07-28T21:44:34.479Z,22.63
2022-07-28T21:47:30.314Z,22.62
2022-07-28T21:50:15.434Z,22.60
2022-07-28T21:52:55.932Z,22.60
2022-07-28T21:55:32.590Z,22.60
2022-07-28T21:58:07.880Z,22.60
2022-07-28T22:00:48.670Z,22.58
2022-07-28T22:03:23.558Z,22.57
2022-07-28T22:06:07.975Z,22.50
2022-07-28T22:08:56.893Z,22.45
2022-07-28T22:11:35.865Z,22.39
2022-07-28T22:14:13.460Z,22.32
2022-07-28T22:16:52.845Z,22.12
2022-07-28T22:19:30.164Z,21.90
2022-07-28T22:22:12.139Z,21.74
2022-07-28T22:24:46.861Z,21.74
2022-07-28T22:27:25.275Z,21.90
2022-07-28T22:30:01.868Z,22.02
2022-07-28T22:32:43.035Z,22.15
2022-07-28T22:35:18.225Z,22.19
2022-07-28T22:37:56.594Z,22.33
2022-07-28T22:40:40.055Z,22.44
2022-07-28T22:43:15.088Z,22.50
2022-07-28T22:45:53.032Z,22.52
2022-07-28T22:48:46.230Z,22.47
2022-07-28T22:51:16.784Z,22.41
2022-07-28T22:53:45.595Z,22.36
2022-07-28T22:56:14.120Z,22.33
2022-07-28T22:58:45.005Z,22.33
2022-07-28T23:01:13.744Z,22.30
2022-07-28T23:03:45.660Z,22.27
2022-07-28T23:06:17.416Z,22.17
2022-07-28T23:08:45.891Z,22.17
2022-07-28T23:11:14.666Z,22.18
2022-07-28T23:13:43.513Z,22.18
2022-07-28T23:16:13.292Z,22.19
2022-07-28T23:18:42.066Z,22.17
2022-07-28T23:21:11.219Z,22.15
2022-07-28T23:23:41.069Z,22.16
2022-07-28T23:26:09.704Z,22.15
2022-07-28T23:28:39.638Z,22.14
2022-07-28T23:31:08.217Z,22.10
2022-07-28T23:33:56.064Z,22.07
2022-07-28T23:36:27.852Z,22.07
2022-07-28T23:38:59.585Z,22.01
2022-07-28T23:41:28.596Z,21.98
2022-07-28T23:43:57.169Z,21.96
2022-07-28T23:46:26.041Z,21.92
2022-07-28T23:48:54.608Z,21.92
2022-07-28T23:51:47.250Z,21.91
2022-07-28T23:54:14.598Z,21.89
2022-07-28T23:56:43.781Z,21.91
2022-07-28T23:59:14.450Z,21.89
